Time;durP1;ratioP1;P1;durP2;ratioP2;P2;SDS_P1;SDS_P2;PMS_P1;PMS_P2;Temp;Humidity;BMP_temperature;BMP_pressure;BME280_temperature;BME280_humidity;BME280_pressure;Samples;Min_cycle;Max_cycle;Signal;HPM_P1;HPM_P2
2023/02/05 00:01:34;;;;;;;1.60;1.20;;;7.60;98.20;;;;;;4993803;28;20491;-74
2023/02/05 00:04:01;;;;;;;1.60;1.20;;;7.60;98.20;;;;;;5006214;28;20495;-73
2023/02/05 00:06:29;;;;;;;1.70;1.40;;;7.60;98.20;;;;;;4989561;28;20885;-73
2023/02/05 00:08:56;;;;;;;1.60;1.20;;;7.60;98.20;;;;;;4998953;28;20488;-73
2023/02/05 00:11:23;;;;;;;1.60;1.20;;;7.60;98.20;;;;;;4995809;28;20520;-73
2023/02/05 00:13:50;;;;;;;1.63;1.20;;;7.60;98.20;;;;;;5006427;28;20459;-73
2023/02/05 00:16:19;;;;;;;1.60;1.30;;;7.60;98.20;;;;;;4995265;28;20491;-73
2023/02/05 00:18:46;;;;;;;1.60;1.20;;;7.60;98.20;;;;;;4994662;28;20560;-73
2023/02/05 00:21:14;;;;;;;1.60;1.40;;;7.60;98.20;;;;;;4987930;28;21206;-75
2023/02/05 00:23:43;;;;;;;1.70;1.47;;;7.60;98.20;;;;;;4999597;28;20523;-73
2023/02/05 00:26:12;;;;;;;1.60;1.20;;;7.60;98.20;;;;;;4986757;28;20483;-75
2023/02/05 00:28:39;;;;;;;1.60;1.20;;;7.60;98.20;;;;;;5008842;28;20566;-76
2023/02/05 00:31:09;;;;;;;1.63;1.30;;;7.60;98.20;;;;;;4990110;28;20481;-74
2023/02/05 00:33:36;;;;;;;1.60;1.30;;;7.50;98.20;;;;;;4994205;28;20469;-76
2023/02/05 00:36:04;;;;;;;1.60;1.20;;;7.50;98.20;;;;;;5005339;28;20482;-74
2023/02/05 00:38:31;;;;;;;1.60;1.20;;;7.50;98.20;;;;;;5032897;28;20861;-74
2023/02/05 00:41:00;;;;;;;1.60;1.20;;;7.50;98.20;;;;;;5021326;28;20477;-73
2023/02/05 00:43:27;;;;;;;1.60;1.20;;;7.50;98.20;;;;;;5036246;28;20564;-73
2023/02/05 00:45:54;;;;;;;1.60;1.20;;;7.50;98.20;;;;;;5015279;28;20491;-73
2023/02/05 00:48:21;;;;;;;1.63;1.30;;;7.50;98.20;;;;;;5028714;28;20518;-73
2023/02/05 00:50:49;;;;;;;1.60;1.30;;;7.50;98.20;;;;;;5023079;28;21059;-73
2023/02/05 00:53:16;;;;;;;1.60;1.17;;;7.50;98.20;;;;;;5030510;28;20478;-74
2023/02/05 00:55:43;;;;;;;1.60;1.20;;;7.50;98.20;;;;;;5031987;28;20549;-73
2023/02/05 00:58:12;;;;;;;1.60;1.10;;;7.50;98.20;;;;;;5031071;28;21064;-74
2023/02/05 01:00:39;;;;;;;1.60;1.20;;;7.50;98.20;;;;;;5026639;28;20460;-74
2023/02/05 01:03:06;;;;;;;1.60;1.20;;;7.50;98.20;;;;;;5023629;28;20566;-76
2023/02/05 01:05:34;;;;;;;1.60;1.20;;;7.50;98.20;;;;;;5032311;28;20463;-75
2023/02/05 01:08:01;;;;;;;1.60;1.30;;;7.50;98.20;;;;;;5019267;28;20582;-75
2023/02/05 01:10:29;;;;;;;1.60;1.30;;;7.50;98.20;;;;;;5033106;28;20584;-75
2023/02/05 01:12:56;;;;;;;1.70;1.50;;;7.50;98.20;;;;;;5033051;28;20547;-74
2023/02/05 01:15:24;;;;;;;1.67;1.43;;;7.50;98.20;;;;;;5031680;28;20505;-74
2023/02/05 01:17:51;;;;;;;1.60;1.20;;;7.50;98.20;;;;;;5030225;28;20471;-74
2023/02/05 01:20:19;;;;;;;1.60;1.20;;;7.50;98.20;;;;;;5031434;28;20462;-75
2023/02/05 01:22:46;;;;;;;1.63;1.30;;;7.50;98.20;;;;;;5023726;28;20483;-74
2023/02/05 01:25:13;;;;;;;1.60;1.20;;;7.50;98.20;;;;;;5031267;28;20731;-74
2023/02/05 01:27:40;;;;;;;1.60;1.30;;;7.50;98.20;;;;;;5021884;28;20785;-72
2023/02/05 01:30:10;;;;;;;1.60;1.23;;;7.50;98.20;;;;;;5031087;28;20511;-73
2023/02/05 01:32:40;;;;;;;1.60;1.20;;;7.40;98.20;;;;;;5016366;28;21056;-73
2023/02/05 01:35:08;;;;;;;1.60;1.20;;;7.40;98.20;;;;;;5030639;28;20467;-73
2023/02/05 01:37:35;;;;;;;1.60;1.20;;;7.30;98.20;;;;;;5013684;28;20573;-73
2023/02/05 01:40:02;;;;;;;1.60;1.30;;;7.30;98.20;;;;;;5030550;28;20979;-73
2023/02/05 01:42:31;;;;;;;1.60;1.30;;;7.20;98.20;;;;;;5019837;28;20961;-73
2023/02/05 01:45:38;;;;;;;1.60;1.30;;;7.20;98.20;;;;;;5030635;28;21011;-73
2023/02/05 01:48:09;;;;;;;1.60;1.30;;;7.20;98.20;;;;;;5019727;28;20557;-73
2023/02/05 01:50:39;;;;;;;1.60;1.20;;;7.20;98.20;;;;;;5028205;28;20463;-73
2023/02/05 01:53:09;;;;;;;1.60;1.20;;;7.10;98.20;;;;;;5032580;28;21092;-73
2023/02/05 01:55:42;;;;;;;1.63;1.40;;;7.20;98.20;;;;;;5024090;28;20773;-73
2023/02/05 01:58:10;;;;;;;1.60;1.27;;;7.20;98.20;;;;;;5021160;28;21046;-73
2023/02/05 02:00:37;;;;;;;1.60;1.20;;;7.20;98.20;;;;;;5027679;28;20499;-73
2023/02/05 02:03:05;;;;;;;1.60;1.30;;;7.20;98.20;;;;;;5015777;28;20652;-73
2023/02/05 02:05:32;;;;;;;1.70;1.50;;;7.20;98.20;;;;;;5030345;28;20563;-72
2023/02/05 02:07:59;;;;;;;1.60;1.20;;;7.20;98.20;;;;;;5020999;28;20581;-73
2023/02/05 02:10:26;;;;;;;1.70;1.40;;;7.20;98.20;;;;;;5030288;28;20834;-73
2023/02/05 02:12:55;;;;;;;1.70;1.40;;;7.20;98.20;;;;;;5026174;28;20507;-73
2023/02/05 02:15:25;;;;;;;1.70;1.40;;;7.20;98.20;;;;;;5033087;28;20455;-73
2023/02/05 02:18:24;;;;;;;1.60;1.20;;;7.20;98.20;;;;;;5031626;28;20516;-73
2023/02/05 02:20:48;;;;;;;1.60;1.20;;;7.20;98.20;;;;;;5029012;28;20460;-73
2023/02/05 02:23:27;;;;;;;1.60;1.20;;;7.10;98.20;;;;;;5003527;28;20510;-72
2023/02/05 02:26:24;;;;;;;1.60;1.20;;;7.10;98.20;;;;;;5019492;28;20541;-73
2023/02/05 02:28:58;;;;;;;1.60;1.20;;;7.10;98.20;;;;;;5026856;28;20510;-73
2023/02/05 02:31:30;;;;;;;1.60;1.20;;;7.10;98.20;;;;;;5008825;28;20536;-73
2023/02/05 02:34:02;;;;;;;1.60;1.20;;;7.10;98.20;;;;;;5024439;28;20537;-73
2023/02/05 02:36:34;;;;;;;1.60;1.37;;;7.10;98.20;;;;;;5016071;28;20471;-73
2023/02/05 02:39:06;;;;;;;1.60;1.27;;;7.10;98.20;;;;;;5027768;28;20829;-73
2023/02/05 02:41:43;;;;;;;1.63;1.30;;;7.10;98.20;;;;;;5018393;28;20962;-73
2023/02/05 02:44:15;;;;;;;1.60;1.20;;;7.10;98.20;;;;;;5029152;28;20459;-73
2023/02/05 02:46:46;;;;;;;1.60;1.20;;;7.10;98.20;;;;;;5012490;28;20480;-73
2023/02/05 02:49:17;;;;;;;1.60;1.20;;;7.10;98.20;;;;;;5029339;28;20511;-73
2023/02/05 02:51:45;;;;;;;1.60;1.20;;;7.10;98.20;;;;;;5018652;28;21036;-72
2023/02/05 02:54:15;;;;;;;1.60;1.20;;;7.10;98.20;;;;;;5028698;28;20491;-73
2023/02/05 02:56:44;;;;;;;1.63;1.30;;;7.10;98.20;;;;;;5017335;28;20564;-73
2023/02/05 02:59:17;;;;;;;1.60;1.20;;;7.20;98.20;;;;;;5026731;28;20455;-73
2023/02/05 03:01:51;;;;;;;1.70;1.30;;;7.20;98.20;;;;;;5018178;28;20582;-72
2023/02/05 03:04:23;;;;;;;1.67;1.20;;;7.20;98.20;;;;;;5028862;28;20549;-73
2023/02/05 03:06:53;;;;;;;1.67;1.40;;;7.20;98.20;;;;;;5018880;28;20529;-73
2023/02/05 03:09:27;;;;;;;1.60;1.20;;;7.20;98.20;;;;;;5029136;28;20538;-73
2023/02/05 03:11:54;;;;;;;1.60;1.17;;;7.20;98.20;;;;;;5018928;28;20861;-73
2023/02/05 03:14:23;;;;;;;1.60;1.20;;;7.20;98.20;;;;;;5022291;28;20474;-73
2023/02/05 03:16:51;;;;;;;1.60;1.20;;;7.20;98.20;;;;;;5015783;28;20558;-73
2023/02/05 03:19:18;;;;;;;1.70;1.33;;;7.20;98.20;;;;;;5029282;28;20487;-73
2023/02/05 03:21:49;;;;;;;1.60;1.20;;;7.20;98.20;;;;;;5016962;28;20493;-73
2023/02/05 03:24:17;;;;;;;1.60;1.20;;;7.20;98.20;;;;;;5026668;28;20474;-73
2023/02/05 03:26:44;;;;;;;1.70;1.40;;;7.20;98.20;;;;;;5018506;28;20495;-72
2023/02/05 03:29:15;;;;;;;1.60;1.30;;;7.20;98.20;;;;;;5028166;28;20491;-73
2023/02/05 03:31:52;;;;;;;1.60;1.20;;;7.20;98.20;;;;;;5019082;28;20493;-73
2023/02/05 03:34:29;;;;;;;1.70;1.30;;;7.20;98.20;;;;;;5029468;28;20467;-73
2023/02/05 03:37:07;;;;;;;1.63;1.20;;;7.20;98.20;;;;;;5022444;28;20555;-73
2023/02/05 03:39:45;;;;;;;1.60;1.20;;;7.20;98.20;;;;;;5025298;28;20463;-73
2023/02/05 03:42:23;;;;;;;1.67;1.20;;;7.20;98.20;;;;;;5021722;28;20477;-73
2023/02/05 03:45:10;;;;;;;1.60;1.20;;;7.20;98.20;;;;;;5026619;28;20461;-73
2023/02/05 03:47:53;;;;;;;1.60;1.20;;;7.20;98.20;;;;;;5016468;28;20494;-73
2023/02/05 03:50:28;;;;;;;1.63;1.30;;;7.20;98.20;;;;;;5028029;28;20984;-72
2023/02/05 03:53:01;;;;;;;1.60;1.20;;;7.20;98.20;;;;;;5019741;28;20524;-72
2023/02/05 03:55:31;;;;;;;1.60;1.30;;;7.30;98.20;;;;;;5027261;28;20460;-72
2023/02/05 03:58:02;;;;;;;1.60;1.20;;;7.30;98.20;;;;;;5019078;28;20478;-72
2023/02/05 04:00:30;;;;;;;1.60;1.30;;;7.30;98.20;;;;;;5025201;28;20486;-73
2023/02/05 04:02:58;;;;;;;1.60;1.30;;;7.30;98.20;;;;;;5025093;28;20543;-73
2023/02/05 04:05:25;;;;;;;1.60;1.20;;;7.30;98.20;;;;;;5028362;28;20463;-73
2023/02/05 04:07:52;;;;;;;1.60;1.30;;;7.30;98.20;;;;;;5023448;28;21012;-73
2023/02/05 04:10:20;;;;;;;1.60;1.30;;;7.30;98.20;;;;;;5029444;28;20558;-73
2023/02/05 04:12:47;;;;;;;1.60;1.30;;;7.40;98.20;;;;;;5030179;28;20486;-72
2023/02/05 04:15:14;;;;;;;1.60;1.20;;;7.40;98.20;;;;;;5030905;28;20550;-73
2023/02/05 04:17:41;;;;;;;1.60;1.20;;;7.40;98.20;;;;;;5018140;28;20544;-73
2023/02/05 04:20:10;;;;;;;1.60;1.20;;;7.40;98.20;;;;;;5030338;28;20473;-73
2023/02/05 04:22:38;;;;;;;1.60;1.20;;;7.40;98.20;;;;;;5023372;28;20505;-73
2023/02/05 04:25:05;;;;;;;1.60;1.27;;;7.40;98.20;;;;;;5023029;28;20478;-73
2023/02/05 04:27:33;;;;;;;1.60;1.20;;;7.40;98.20;;;;;;5023584;28;20861;-73
2023/02/05 04:30:00;;;;;;;1.60;1.30;;;7.40;98.20;;;;;;5020356;28;20487;-73
2023/02/05 04:32:27;;;;;;;1.67;1.40;;;7.40;98.20;;;;;;5021099;28;21012;-72
2023/02/05 04:34:54;;;;;;;1.60;1.20;;;7.40;98.20;;;;;;5025375;28;20556;-72
2023/02/05 04:37:23;;;;;;;1.60;1.20;;;7.50;98.20;;;;;;5023245;28;20491;-72
2023/02/05 04:39:50;;;;;;;1.60;1.20;;;7.50;98.20;;;;;;5035452;28;20462;-73
2023/02/05 04:42:18;;;;;;;1.60;1.20;;;7.50;98.20;;;;;;5031340;28;20889;-74
2023/02/05 04:44:44;;;;;;;1.60;1.30;;;7.50;98.20;;;;;;5042957;28;20477;-73
2023/02/05 04:47:12;;;;;;;1.60;1.20;;;7.50;98.20;;;;;;5033094;28;20483;-73
2023/02/05 04:49:40;;;;;;;1.70;1.40;;;7.50;98.20;;;;;;5038499;28;20494;-73
2023/02/05 04:52:07;;;;;;;1.70;1.33;;;7.50;98.20;;;;;;5028242;28;20486;-73
2023/02/05 04:54:37;;;;;;;1.60;1.20;;;7.50;98.20;;;;;;5040546;28;20462;-74
2023/02/05 04:57:04;;;;;;;1.60;1.20;;;7.40;98.20;;;;;;5021791;28;21443;-73
2023/02/05 04:59:31;;;;;;;1.60;1.20;;;7.40;98.20;;;;;;5035031;28;20470;-74
2023/02/05 05:01:58;;;;;;;1.60;1.20;;;7.40;98.20;;;;;;5022771;28;20483;-73
2023/02/05 05:04:25;;;;;;;1.67;1.30;;;7.40;98.20;;;;;;5042835;28;20502;-74
2023/02/05 05:06:53;;;;;;;1.60;1.30;;;7.40;98.20;;;;;;5032672;28;21033;-74
2023/02/05 05:09:22;;;;;;;1.63;1.30;;;7.40;98.20;;;;;;5045399;28;21242;-74
2023/02/05 05:11:51;;;;;;;1.60;1.30;;;7.50;98.20;;;;;;5030772;28;20481;-74
2023/02/05 05:14:18;;;;;;;1.70;1.30;;;7.50;98.20;;;;;;5042125;28;20464;-74
2023/02/05 05:16:45;;;;;;;1.60;1.20;;;7.50;98.20;;;;;;5017763;28;20471;-73
2023/02/05 05:19:12;;;;;;;1.60;1.30;;;7.50;98.20;;;;;;5029902;28;21108;-73
2023/02/05 05:21:39;;;;;;;1.60;1.20;;;7.50;98.20;;;;;;5027353;28;20492;-73
2023/02/05 05:24:07;;;;;;;1.60;1.20;;;7.50;98.20;;;;;;5039374;28;20906;-73
2023/02/05 05:26:34;;;;;;;1.70;1.40;;;7.50;98.20;;;;;;5024647;28;20489;-73
2023/02/05 05:29:05;;;;;;;1.60;1.20;;;7.50;98.20;;;;;;5045974;28;20545;-73
2023/02/05 05:31:31;;;;;;;1.60;1.30;;;7.50;98.20;;;;;;5027832;28;21015;-73
2023/02/05 05:33:58;;;;;;;1.60;1.20;;;7.50;98.20;;;;;;5047674;28;20822;-73
2023/02/05 05:36:25;;;;;;;1.60;1.30;;;7.50;98.20;;;;;;5008819;28;20487;-73
2023/02/05 05:38:52;;;;;;;1.60;1.20;;;7.50;98.20;;;;;;5018823;28;20470;-73
2023/02/05 05:44:10;;;;;;;1.60;1.20;;;7.50;98.20;;;;;;5014303;28;20541;-73
2023/02/05 05:46:37;;;;;;;1.60;1.20;;;7.50;98.20;;;;;;5003113;28;20871;-73
2023/02/05 05:49:04;;;;;;;1.60;1.20;;;7.50;98.20;;;;;;5016662;28;20492;-73
2023/02/05 05:51:32;;;;;;;1.67;1.30;;;7.50;98.20;;;;;;5003432;28;20499;-73
2023/02/05 05:53:59;;;;;;;1.60;1.20;;;7.60;98.20;;;;;;5017699;28;20510;-73
2023/02/05 05:56:26;;;;;;;1.60;1.20;;;7.50;98.20;;;;;;5001052;28;20486;-73
2023/02/05 05:58:53;;;;;;;1.60;1.30;;;7.50;98.20;;;;;;5020177;28;20471;-73
2023/02/05 06:01:22;;;;;;;1.60;1.20;;;7.50;98.20;;;;;;5001424;28;20495;-74
2023/02/05 06:03:49;;;;;;;1.60;1.30;;;7.50;98.20;;;;;;5019008;28;20469;-73
2023/02/05 06:06:16;;;;;;;1.60;1.30;;;7.50;98.20;;;;;;4999398;28;20510;-73
2023/02/05 06:08:43;;;;;;;1.60;1.20;;;7.50;98.20;;;;;;5019968;28;20464;-73
2023/02/05 06:11:10;;;;;;;1.60;1.30;;;7.50;98.20;;;;;;5002170;28;21068;-73
2023/02/05 06:13:38;;;;;;;1.60;1.20;;;7.50;98.20;;;;;;5019383;28;20463;-73
2023/02/05 06:16:05;;;;;;;1.60;1.20;;;7.50;98.20;;;;;;4999734;28;20475;-73
2023/02/05 06:18:34;;;;;;;1.60;1.20;;;7.50;98.20;;;;;;5019662;28;20466;-73
2023/02/05 06:21:02;;;;;;;1.60;1.20;;;7.50;98.20;;;;;;4997970;28;20510;-73
2023/02/05 06:23:29;;;;;;;1.60;1.20;;;7.50;98.20;;;;;;5023231;28;20476;-73
2023/02/05 06:25:56;;;;;;;1.60;1.27;;;7.50;98.20;;;;;;5001595;28;20502;-75
2023/02/05 06:28:23;;;;;;;1.60;1.27;;;7.50;98.20;;;;;;5021162;28;20467;-75
2023/02/05 06:30:50;;;;;;;1.60;1.20;;;7.50;98.20;;;;;;4995694;28;20578;-74
2023/02/05 06:33:17;;;;;;;1.60;1.30;;;7.50;98.20;;;;;;5023116;28;20927;-73
2023/02/05 06:35:46;;;;;;;1.60;1.10;;;7.50;98.20;;;;;;5015791;28;20466;-74
2023/02/05 06:38:13;;;;;;;1.63;1.30;;;7.50;98.20;;;;;;5000698;28;20976;-74
2023/02/05 06:40:40;;;;;;;1.60;1.10;;;7.50;98.20;;;;;;5029175;28;20810;-72
2023/02/05 06:43:07;;;;;;;1.60;1.30;;;7.50;98.20;;;;;;5036464;28;20494;-75
2023/02/05 06:45:34;;;;;;;1.70;1.37;;;7.50;98.20;;;;;;5036253;28;20837;-75
2023/02/05 06:48:01;;;;;;;1.60;1.20;;;7.50;98.20;;;;;;5018715;28;20491;-74
2023/02/05 06:50:28;;;;;;;1.60;1.20;;;7.50;98.20;;;;;;5032176;28;20491;-74
2023/02/05 06:52:57;;;;;;;1.60;1.20;;;7.50;98.20;;;;;;5018794;28;20489;-74
2023/02/05 06:55:24;;;;;;;1.60;1.20;;;7.50;98.20;;;;;;5034676;28;20467;-74
2023/02/05 06:57:52;;;;;;;1.60;1.30;;;7.50;98.20;;;;;;5015568;28;20490;-74
2023/02/05 07:00:19;;;;;;;1.60;1.20;;;7.50;98.20;;;;;;5031903;28;20463;-74
2023/02/05 07:02:46;;;;;;;1.60;1.20;;;7.50;98.20;;;;;;5039487;28;20489;-74
2023/02/05 07:05:14;;;;;;;1.60;1.20;;;7.50;98.20;;;;;;5034577;28;20487;-76
2023/02/05 07:07:41;;;;;;;1.63;1.30;;;7.50;98.20;;;;;;5015021;28;20691;-75
2023/02/05 07:10:10;;;;;;;1.67;1.30;;;7.50;98.20;;;;;;5026685;28;20488;-75
2023/02/05 07:12:37;;;;;;;1.60;1.20;;;7.50;98.20;;;;;;5034255;28;20524;-74
2023/02/05 07:15:05;;;;;;;1.60;1.27;;;7.50;98.20;;;;;;5033826;28;20475;-74
2023/02/05 07:17:33;;;;;;;1.60;1.20;;;7.50;98.20;;;;;;5015957;28;20540;-75
2023/02/05 07:20:00;;;;;;;1.60;1.20;;;7.50;98.20;;;;;;5033874;28;20562;-75
2023/02/05 07:22:28;;;;;;;1.60;1.20;;;7.50;98.20;;;;;;5032056;28;20949;-74
2023/02/05 07:24:55;;;;;;;1.60;1.20;;;7.50;98.20;;;;;;5035689;28;20470;-75
2023/02/05 07:27:24;;;;;;;1.70;1.30;;;7.50;98.20;;;;;;5038037;28;21003;-75
2023/02/05 07:29:51;;;;;;;2.63;2.43;;;7.50;98.20;;;;;;5037398;28;21013;-75
2023/02/05 07:32:18;;;;;;;1.60;1.20;;;7.50;98.20;;;;;;5020810;28;20574;-76
2023/02/05 07:34:46;;;;;;;1.63;1.33;;;7.50;98.20;;;;;;5037217;28;20870;-75
2023/02/05 07:37:13;;;;;;;1.60;1.20;;;7.50;98.20;;;;;;5034704;28;20482;-76
2023/02/05 07:39:41;;;;;;;1.60;1.20;;;7.50;98.20;;;;;;5028841;28;20459;-75
2023/02/05 07:42:09;;;;;;;1.60;1.30;;;7.50;98.20;;;;;;5025709;28;20493;-75
2023/02/05 07:44:38;;;;;;;1.60;1.30;;;7.50;98.20;;;;;;5038861;28;20458;-75
2023/02/05 07:47:06;;;;;;;1.60;1.33;;;7.50;98.20;;;;;;5036324;28;21020;-74
2023/02/05 07:49:33;;;;;;;1.60;1.20;;;7.50;98.20;;;;;;5045304;28;20462;-73
2023/02/05 07:52:02;;;;;;;1.60;1.20;;;7.50;98.20;;;;;;5018311;28;20480;-75
2023/02/05 07:54:29;;;;;;;1.60;1.20;;;7.50;98.20;;;;;;5040123;28;20466;-73
2023/02/05 07:56:58;;;;;;;1.60;1.20;;;7.50;98.20;;;;;;5037963;28;20483;-74
2023/02/05 07:59:32;;;;;;;2.53;2.33;;;7.50;98.20;;;;;;5039955;28;20959;-75
2023/02/05 08:02:01;;;;;;;1.60;1.20;;;7.40;98.20;;;;;;5026086;28;20562;-74
2023/02/05 08:04:28;;;;;;;1.60;1.10;;;7.40;98.20;;;;;;5036030;28;20470;-74
2023/02/05 08:06:56;;;;;;;1.60;1.20;;;7.40;98.20;;;;;;5029388;28;20516;-75
2023/02/05 08:09:23;;;;;;;1.60;1.20;;;7.40;98.20;;;;;;5041210;28;20493;-74
2023/02/05 08:11:51;;;;;;;1.60;1.20;;;7.40;98.20;;;;;;5028179;28;20477;-74
2023/02/05 08:14:18;;;;;;;1.60;1.20;;;7.40;98.20;;;;;;5044290;28;20466;-74
2023/02/05 08:16:46;;;;;;;1.60;1.20;;;7.40;98.20;;;;;;5026376;28;20513;-74
2023/02/05 08:19:16;;;;;;;1.70;1.60;;;7.40;98.20;;;;;;5037212;28;20535;-74
2023/02/05 08:21:45;;;;;;;1.60;1.20;;;7.40;98.20;;;;;;5028732;28;20478;-74
2023/02/05 08:24:12;;;;;;;1.60;1.20;;;7.40;98.20;;;;;;5039529;28;20513;-74
2023/02/05 08:26:40;;;;;;;1.70;1.30;;;7.40;98.20;;;;;;5027203;28;21031;-74
2023/02/05 08:29:08;;;;;;;1.60;1.20;;;7.40;98.20;;;;;;5045855;28;20555;-75
2023/02/05 08:31:36;;;;;;;1.60;1.23;;;7.40;98.20;;;;;;5031185;28;21002;-74
2023/02/05 08:34:03;;;;;;;1.60;1.27;;;7.40;98.20;;;;;;5040784;28;20458;-75
2023/02/05 08:36:32;;;;;;;1.60;1.20;;;7.40;98.20;;;;;;5033597;28;20513;-75
2023/02/05 08:39:00;;;;;;;1.60;1.10;;;7.40;98.20;;;;;;5045135;28;20518;-73
2023/02/05 08:41:28;;;;;;;1.60;1.30;;;7.30;98.20;;;;;;5026612;28;20483;-77
2023/02/05 08:43:55;;;;;;;1.60;1.27;;;7.30;98.20;;;;;;5029775;28;20850;-76
2023/02/05 08:46:28;;;;;;;1.60;1.20;;;7.30;98.20;;;;;;5028984;28;20906;-74
2023/02/05 08:48:55;;;;;;;1.60;1.20;;;7.30;98.20;;;;;;5037137;28;20917;-76
2023/02/05 08:51:23;;;;;;;1.60;1.30;;;7.30;98.20;;;;;;5017647;28;20537;-73
2023/02/05 08:53:55;;;;;;;1.70;1.40;;;7.30;98.20;;;;;;5027569;28;20484;-74
2023/02/05 08:56:23;;;;;;;1.67;1.30;;;7.20;98.20;;;;;;5022438;28;20497;-73
2023/02/05 08:58:52;;;;;;;1.60;1.20;;;7.10;98.20;;;;;;5041883;28;20529;-73
2023/02/05 09:01:20;;;;;;;1.60;1.30;;;7.10;98.20;;;;;;5021740;28;20886;-73
2023/02/05 09:03:48;;;;;;;1.70;1.40;;;7.00;98.20;;;;;;5023664;28;20467;-73
2023/02/05 09:06:19;;;;;;;1.60;1.30;;;7.00;98.20;;;;;;5012706;28;20491;-75
2023/02/05 09:08:47;;;;;;;1.60;1.30;;;7.00;98.20;;;;;;5023723;28;20939;-73
2023/02/05 09:11:21;;;;;;;1.60;1.27;;;7.00;98.20;;;;;;5029188;28;20481;-73
2023/02/05 09:13:52;;;;;;;1.60;1.20;;;7.00;98.20;;;;;;5042864;28;20467;-73
2023/02/05 09:16:20;;;;;;;1.63;1.20;;;7.00;98.20;;;;;;5029120;28;20487;-74
2023/02/05 09:18:48;;;;;;;1.60;1.20;;;6.90;98.20;;;;;;5019433;28;20459;-74
2023/02/05 09:21:15;;;;;;;1.60;1.20;;;6.90;98.20;;;;;;5024967;28;20478;-72
2023/02/05 09:23:46;;;;;;;1.60;1.30;;;6.90;98.20;;;;;;5044848;28;20520;-72
2023/02/05 09:26:14;;;;;;;1.60;1.20;;;6.90;98.20;;;;;;5021098;28;20486;-73
2023/02/05 09:28:43;;;;;;;1.60;1.20;;;6.90;98.20;;;;;;5048284;28;20975;-73
2023/02/05 09:31:13;;;;;;;1.60;1.20;;;6.90;98.20;;;;;;5016968;28;20483;-72
2023/02/05 09:33:42;;;;;;;1.60;1.20;;;6.90;98.20;;;;;;5021690;28;21042;-73
2023/02/05 09:36:13;;;;;;;1.60;1.20;;;6.90;98.20;;;;;;5002846;28;20491;-72
2023/02/05 09:38:41;;;;;;;1.60;1.27;;;6.90;98.20;;;;;;5013879;28;20471;-73
2023/02/05 09:41:14;;;;;;;1.60;1.20;;;6.90;98.20;;;;;;5011381;28;21342;-72
2023/02/05 09:43:51;;;;;;;1.67;1.30;;;7.00;98.20;;;;;;5030301;28;20471;-73
2023/02/05 09:46:29;;;;;;;1.63;1.30;;;7.00;98.20;;;;;;5006317;28;20486;-74
2023/02/05 09:49:03;;;;;;;1.60;1.20;;;7.00;98.20;;;;;;5023574;28;20821;-73
2023/02/05 09:51:34;;;;;;;1.60;1.20;;;7.00;98.20;;;;;;5000943;28;20487;-73
2023/02/05 09:54:06;;;;;;;1.60;1.27;;;7.00;98.20;;;;;;5015851;28;20456;-73
2023/02/05 09:56:34;;;;;;;1.60;1.20;;;7.10;98.20;;;;;;4994325;28;20505;-73
2023/02/05 09:59:05;;;;;;;1.60;1.20;;;7.10;98.20;;;;;;5010300;28;20960;-73
2023/02/05 10:01:45;;;;;;;1.63;1.40;;;7.10;98.20;;;;;;5001379;28;20549;-74
2023/02/05 10:04:14;;;;;;;1.63;1.27;;;7.10;98.20;;;;;;5011288;28;20924;-73
2023/02/05 10:07:12;;;;;;;1.60;1.20;;;7.10;98.20;;;;;;4999705;28;20867;-73
2023/02/05 10:09:56;;;;;;;1.60;1.20;;;7.10;98.20;;;;;;5014006;28;20467;-74
2023/02/05 10:12:37;;;;;;;1.60;1.20;;;7.10;98.20;;;;;;5017233;28;20555;-74
2023/02/05 10:15:21;;;;;;;1.60;1.23;;;7.10;98.20;;;;;;5017801;28;20483;-73
2023/02/05 10:18:02;;;;;;;1.63;1.37;;;7.10;98.20;;;;;;4993876;28;21007;-74
2023/02/05 10:20:50;;;;;;;1.60;1.27;;;7.10;98.20;;;;;;5019437;28;20478;-74
2023/02/05 10:23:41;;;;;;;1.60;1.27;;;7.00;98.20;;;;;;4992069;28;20483;-71
2023/02/05 10:26:12;;;;;;;1.60;1.20;;;7.00;98.20;;;;;;5004786;28;20469;-73
2023/02/05 10:29:08;;;;;;;1.60;1.20;;;7.10;98.20;;;;;;5011822;28;20905;-73
2023/02/05 10:31:44;;;;;;;1.60;1.30;;;7.10;98.20;;;;;;5000408;28;20498;-73
2023/02/05 10:34:30;;;;;;;1.60;1.27;;;7.10;98.20;;;;;;5022885;28;20475;-73
2023/02/05 10:36:59;;;;;;;1.60;1.30;;;7.10;98.20;;;;;;5020834;28;21210;-73
2023/02/05 10:39:30;;;;;;;1.67;1.30;;;7.10;98.20;;;;;;5030393;28;20560;-73
2023/02/05 10:42:03;;;;;;;1.60;1.30;;;7.10;98.20;;;;;;5019927;28;20573;-73
2023/02/05 10:44:34;;;;;;;1.60;1.20;;;7.20;98.20;;;;;;5029376;28;20470;-73
2023/02/05 10:47:10;;;;;;;1.63;1.30;;;7.20;98.20;;;;;;5022997;28;21367;-73
2023/02/05 10:49:50;;;;;;;1.60;1.20;;;7.20;98.20;;;;;;5030044;28;20466;-73
2023/02/05 10:52:22;;;;;;;1.60;1.20;;;7.20;98.20;;;;;;5022538;28;20478;-73
2023/02/05 10:54:53;;;;;;;1.60;1.20;;;7.20;98.20;;;;;;5034314;28;20505;-73
2023/02/05 10:57:24;;;;;;;1.60;1.20;;;7.20;98.20;;;;;;5025656;28;20482;-73
2023/02/05 11:00:06;;;;;;;1.63;1.30;;;7.30;98.20;;;;;;5028789;28;20978;-73
2023/02/05 11:02:50;;;;;;;1.60;1.20;;;7.30;98.20;;;;;;5031328;28;20486;-74
2023/02/05 11:05:35;;;;;;;1.60;1.20;;;7.30;98.20;;;;;;5038957;28;20512;-73
2023/02/05 11:10:53;;;;;;;1.60;1.30;;;7.30;98.20;;;;;;5028441;28;20490;-74
2023/02/05 11:13:24;;;;;;;1.63;1.30;;;7.30;98.20;;;;;;5021949;28;20492;-74
2023/02/05 11:15:56;;;;;;;1.63;1.30;;;7.30;98.20;;;;;;5007213;28;20467;-73
2023/02/05 11:18:30;;;;;;;1.60;1.20;;;7.30;98.20;;;;;;5021207;28;20494;-74
2023/02/05 11:21:00;;;;;;;1.60;1.20;;;7.20;98.20;;;;;;5009486;28;20835;-74
2023/02/05 11:23:30;;;;;;;3.73;2.10;;;7.20;98.20;;;;;;5021972;28;20483;-74
2023/02/05 11:26:00;;;;;;;1.63;1.30;;;7.20;98.20;;;;;;5012770;28;20680;-74
2023/02/05 11:28:32;;;;;;;1.60;1.37;;;7.20;98.20;;;;;;5018080;28;20745;-74
2023/02/05 11:31:19;;;;;;;1.60;1.20;;;7.30;98.20;;;;;;5011815;28;20486;-74
2023/02/05 11:33:51;;;;;;;1.60;1.30;;;7.20;98.20;;;;;;5004629;28;20470;-75
2023/02/05 11:36:22;;;;;;;1.60;1.30;;;7.20;98.20;;;;;;5009890;28;20759;-74
2023/02/05 11:38:52;;;;;;;1.60;1.20;;;7.30;98.20;;;;;;5026824;28;20884;-74
2023/02/05 11:41:30;;;;;;;1.60;1.20;;;7.20;98.20;;;;;;5010051;28;20565;-74
2023/02/05 11:44:01;;;;;;;1.60;1.40;;;7.20;98.20;;;;;;5023992;28;20549;-75
2023/02/05 11:46:34;;;;;;;1.60;1.20;;;7.20;98.20;;;;;;5009179;28;20489;-75
2023/02/05 11:49:04;;;;;;;1.60;1.30;;;7.20;98.20;;;;;;5022452;28;20463;-75
2023/02/05 11:51:46;;;;;;;1.60;1.17;;;7.20;98.20;;;;;;5012382;28;20593;-75
2023/02/05 11:54:20;;;;;;;1.60;1.40;;;7.20;98.20;;;;;;5020588;28;20553;-75
2023/02/05 11:57:02;;;;;;;1.60;1.20;;;7.20;98.20;;;;;;5001767;28;20478;-73
2023/02/05 11:59:34;;;;;;;1.60;1.20;;;7.20;98.20;;;;;;5012027;28;20573;-74
2023/02/05 12:02:30;;;;;;;1.60;1.17;;;7.20;98.20;;;;;;5001343;28;20543;-74
2023/02/05 12:05:17;;;;;;;1.60;1.40;;;7.20;98.20;;;;;;5014961;28;20467;-75
2023/02/05 12:07:52;;;;;;;1.60;1.20;;;7.20;98.20;;;;;;5008750;28;20482;-73
2023/02/05 12:10:27;;;;;;;1.60;1.20;;;7.20;98.20;;;;;;5020301;28;21054;-73
2023/02/05 12:13:03;;;;;;;1.60;1.40;;;7.20;98.20;;;;;;5007972;28;21379;-74
2023/02/05 12:15:41;;;;;;;1.60;1.20;;;7.20;98.20;;;;;;5018493;28;20462;-73
2023/02/05 12:18:20;;;;;;;1.60;1.20;;;7.10;98.20;;;;;;5012151;28;20490;-72
2023/02/05 12:21:01;;;;;;;1.60;1.20;;;7.10;98.20;;;;;;5007048;28;20843;-72
2023/02/05 12:23:51;;;;;;;1.60;1.20;;;7.10;98.20;;;;;;5010709;28;20495;-73
2023/02/05 12:26:32;;;;;;;1.63;1.20;;;7.10;98.20;;;;;;5011656;28;20477;-72
2023/02/05 12:29:21;;;;;;;1.60;1.20;;;7.10;98.20;;;;;;5025689;28;20478;-72
2023/02/05 12:32:00;;;;;;;1.60;1.30;;;7.10;98.20;;;;;;5002597;28;20932;-72
2023/02/05 12:34:38;;;;;;;1.60;1.30;;;7.10;98.20;;;;;;5013817;28;20514;-72
2023/02/05 12:37:29;;;;;;;1.60;1.30;;;7.10;98.20;;;;;;5008350;28;20478;-72
2023/02/05 12:40:07;;;;;;;1.60;1.20;;;7.10;98.20;;;;;;5020406;28;20481;-72
2023/02/05 12:42:36;;;;;;;1.60;1.20;;;7.10;98.20;;;;;;5010610;28;20522;-72
2023/02/05 12:45:26;;;;;;;1.60;1.30;;;7.10;98.20;;;;;;5023298;28;20471;-72
2023/02/05 12:48:24;;;;;;;1.67;1.30;;;7.10;98.20;;;;;;5014879;28;20585;-73
2023/02/05 12:51:08;;;;;;;1.60;1.20;;;7.10;98.20;;;;;;5013894;28;20542;-72
2023/02/05 12:54:19;;;;;;;1.60;1.23;;;7.10;98.20;;;;;;5023989;28;20881;-72
2023/02/05 12:56:58;;;;;;;1.60;1.20;;;7.10;98.20;;;;;;4991926;28;20610;-73
2023/02/05 12:59:42;;;;;;;1.60;1.20;;;7.10;98.20;;;;;;5024159;28;20978;-74
2023/02/05 13:02:23;;;;;;;1.60;1.30;;;7.10;98.20;;;;;;4998515;28;20492;-73
2023/02/05 13:05:00;;;;;;;1.60;1.20;;;7.10;98.20;;;;;;5016879;28;20489;-72
2023/02/05 13:07:33;;;;;;;1.60;1.20;;;7.20;98.20;;;;;;5015440;28;20517;-72
2023/02/05 13:10:07;;;;;;;1.60;1.20;;;7.20;98.20;;;;;;5019545;28;20471;-73
2023/02/05 13:12:39;;;;;;;1.60;1.20;;;7.20;98.20;;;;;;5014031;28;20522;-72
2023/02/05 13:15:16;;;;;;;1.67;1.30;;;7.20;98.20;;;;;;5020733;28;20510;-73
2023/02/05 13:17:57;;;;;;;1.60;1.20;;;7.20;98.20;;;;;;5007451;28;20833;-72
2023/02/05 13:29:03;;;;;;;1.60;1.20;;;7.20;98.20;;;;;;5022558;28;20462;-74
2023/02/05 13:31:37;;;;;;;1.60;1.30;;;7.10;98.20;;;;;;5010776;28;20483;-74
2023/02/05 13:37:21;;;;;;;1.60;1.20;;;7.10;98.20;;;;;;4996325;28;20482;-75